Pazardzhik, Bulgaria
Current Conditions -  °F | °C
As of 8:00 AM on Thursday 23 Oct 2014 (Local Time) from LBPD Reporting Station
Light Rain Light Rain  
Wind Chill: 54°   Ceiling: 6500
Heat Index: 54°   Visibility: 3mi
Dew Point: 54°   Wind: 4mph
Humidity: 100%   Direction: 280°W
Pressure: 29.47"   Gusts: NA
Location:  42.2°N, 24.34°E
Report Text: LBPD 230500Z 28002MPS 5000 -RA BKN065 12/12 Q0998 RE+RA NOSIG
Loading
Personal Weather Stations






























Interactive Weather Map
Tropical Storm Tracking
New forecast layout! Learn more

10-Day Weather Forecast

Advertisements
Track Severe Weather on mobile